createdAt,value
2023-03-29T00:01:35.789Z,100517.13
2023-03-29T00:04:17.500Z,100510.94
2023-03-29T00:06:51.701Z,100521.72
2023-03-29T00:09:23.144Z,100511.78
2023-03-29T00:11:53.277Z,100514.31
2023-03-29T00:14:23.263Z,100508.97
2023-03-29T00:16:53.605Z,100502.56
2023-03-29T00:19:23.607Z,100507.91
2023-03-29T00:21:53.812Z,100511.34
2023-03-29T00:24:25.183Z,100521.00
2023-03-29T00:26:55.364Z,100523.72
2023-03-29T00:29:25.310Z,100518.53
2023-03-29T00:31:57.063Z,100516.41
2023-03-29T00:34:32.066Z,100522.31
2023-03-29T00:37:02.301Z,100523.34
2023-03-29T00:39:32.733Z,100512.97
2023-03-29T00:42:03.828Z,100527.84
2023-03-29T00:44:55.361Z,100518.38
2023-03-29T00:47:34.925Z,100513.78
2023-03-29T00:50:14.444Z,100518.81
2023-03-29T00:52:50.016Z,100522.91
2023-03-29T00:55:24.324Z,100524.44
2023-03-29T00:57:57.340Z,100522.47
2023-03-29T01:00:34.961Z,100516.41
2023-03-29T01:03:14.641Z,100511.38
2023-03-29T01:05:51.858Z,100509.38
2023-03-29T01:08:56.393Z,100509.19
2023-03-29T01:11:34.064Z,100513.66
2023-03-29T01:14:11.787Z,100524.47
2023-03-29T01:16:41.817Z,100519.84
2023-03-29T01:19:17.048Z,100506.19
2023-03-29T01:21:53.072Z,100513.56
2023-03-29T01:24:39.140Z,100504.44
2023-03-29T01:27:19.568Z,100503.84
2023-03-29T01:29:56.388Z,100508.44
2023-03-29T01:32:28.807Z,100506.63
2023-03-29T01:35:11.674Z,100500.41
2023-03-29T01:38:00.387Z,100506.53
2023-03-29T01:40:32.265Z,100509.19
2023-03-29T01:43:23.477Z,100503.66
2023-03-29T01:46:03.226Z,100505.47
2023-03-29T01:48:45.512Z,100507.75
2023-03-29T01:51:38.190Z,100507.72
2023-03-29T01:54:19.819Z,100504.75
2023-03-29T01:56:52.941Z,100507.34
2023-03-29T01:59:29.668Z,100505.91
2023-03-29T02:02:02.646Z,100496.66
2023-03-29T02:04:51.509Z,100508.81
2023-03-29T02:07:27.654Z,100501.00
2023-03-29T02:09:59.736Z,100505.09
2023-03-29T02:12:30.071Z,100501.19
2023-03-29T02:15:01.988Z,100508.84
2023-03-29T02:17:32.481Z,100507.47
2023-03-29T02:20:18.757Z,100499.47
2023-03-29T02:22:58.883Z,100500.38
2023-03-29T02:25:28.945Z,100497.84
2023-03-29T02:27:59.541Z,100503.78
2023-03-29T02:30:35.446Z,100505.59
2023-03-29T02:33:16.777Z,100495.44
2023-03-29T02:36:30.814Z,100502.78
2023-03-29T02:39:03.149Z,100503.31
2023-03-29T02:41:34.929Z,100501.03
2023-03-29T02:44:09.309Z,100501.41
2023-03-29T02:46:39.699Z,100493.94
2023-03-29T02:49:11.542Z,100502.66
2023-03-29T02:51:41.597Z,100494.47
2023-03-29T02:54:19.535Z,100490.75
2023-03-29T02:56:56.916Z,100489.31
2023-03-29T02:59:27.714Z,100495.03
2023-03-29T03:01:57.942Z,100495.38
2023-03-29T03:04:30.685Z,100484.34
2023-03-29T03:07:00.922Z,100483.63
2023-03-29T03:09:32.954Z,100488.22
2023-03-29T03:12:03.293Z,100491.28
2023-03-29T03:14:33.831Z,100489.84
2023-03-29T03:17:04.846Z,100482.78
2023-03-29T03:19:35.716Z,100485.47
2023-03-29T03:22:07.247Z,100486.88
2023-03-29T03:24:37.438Z,100486.59
2023-03-29T03:27:07.718Z,100481.78
2023-03-29T03:29:39.698Z,100471.22
2023-03-29T03:32:28.454Z,100477.44
2023-03-29T03:35:27.680Z,100486.28
2023-03-29T03:37:57.605Z,100468.19
2023-03-29T03:40:28.383Z,100468.56
2023-03-29T03:42:58.584Z,100473.16
2023-03-29T03:45:28.911Z,100481.81
2023-03-29T03:48:10.486Z,100461.78
2023-03-29T03:51:10.701Z,100470.69
2023-03-29T03:53:40.647Z,100466.56
2023-03-29T03:56:17.456Z,100463.47
2023-03-29T03:59:08.298Z,100460.84
2023-03-29T04:01:59.416Z,100456.56
2023-03-29T04:04:29.970Z,100459.75
2023-03-29T04:07:07.042Z,100452.66
2023-03-29T04:09:44.420Z,100456.69
2023-03-29T04:12:33.006Z,100441.19
2023-03-29T04:15:05.034Z,100454.22
2023-03-29T04:17:36.935Z,100446.72
2023-03-29T04:20:17.018Z,100447.13
2023-03-29T04:22:47.898Z,100451.94
2023-03-29T04:25:18.594Z,100443.72
2023-03-29T04:27:52.328Z,100442.66
2023-03-29T04:30:33.867Z,100440.53
2023-03-29T04:33:16.514Z,100437.69
2023-03-29T04:35:51.352Z,100441.09
2023-03-29T04:38:24.230Z,100443.06
2023-03-29T04:40:56.529Z,100445.22
2023-03-29T04:43:38.424Z,100435.06
2023-03-29T04:46:44.175Z,100436.50
2023-03-29T04:49:49.651Z,100428.25
2023-03-29T04:52:34.468Z,100437.00
2023-03-29T04:55:08.211Z,100430.91
2023-03-29T04:57:48.940Z,100433.13
2023-03-29T05:00:28.726Z,100428.53
2023-03-29T05:03:21.013Z,100437.06
2023-03-29T05:06:13.207Z,100431.41
2023-03-29T05:08:43.730Z,100430.75
2023-03-29T05:11:26.294Z,100427.56
2023-03-29T05:13:58.463Z,100423.25
2023-03-29T05:16:33.691Z,100427.50
2023-03-29T05:19:03.927Z,100423.00
2023-03-29T05:21:37.788Z,100420.88
2023-03-29T05:24:11.192Z,100411.22
2023-03-29T05:26:54.144Z,100403.69
2023-03-29T05:29:24.818Z,100408.00
2023-03-29T05:32:02.511Z,100413.44
2023-03-29T05:34:33.196Z,100408.31
2023-03-29T05:37:05.029Z,100407.16
2023-03-29T05:39:45.149Z,100408.28
2023-03-29T05:42:16.817Z,100406.78
2023-03-29T05:45:07.736Z,100406.03
2023-03-29T05:47:38.069Z,100405.28
2023-03-29T05:50:10.987Z,100403.56
2023-03-29T05:52:42.264Z,100403.38
2023-03-29T05:55:12.348Z,100404.13
2023-03-29T05:57:42.692Z,100397.50
2023-03-29T06:00:25.061Z,100396.25
2023-03-29T06:03:17.913Z,100395.88
2023-03-29T06:05:57.620Z,100387.00
2023-03-29T06:08:29.718Z,100386.31
2023-03-29T06:11:10.214Z,100386.56
2023-03-29T06:13:59.347Z,100388.44
2023-03-29T06:16:30.330Z,100382.78
2023-03-29T06:19:00.581Z,100385.94
2023-03-29T06:21:33.057Z,100383.50
2023-03-29T06:24:05.193Z,100386.88
2023-03-29T06:26:41.111Z,100385.00
2023-03-29T06:29:11.494Z,100381.19
2023-03-29T06:31:43.495Z,100379.94
2023-03-29T06:34:28.738Z,100386.03
2023-03-29T06:37:22.751Z,100375.06
2023-03-29T06:40:02.134Z,100371.28
2023-03-29T06:42:37.873Z,100376.53
2023-03-29T06:45:34.442Z,100374.97
2023-03-29T06:48:11.450Z,100385.19
2023-03-29T06:50:43.106Z,100379.31
2023-03-29T06:53:16.988Z,100381.28
2023-03-29T06:55:55.810Z,100386.19
2023-03-29T06:58:40.405Z,100376.72
2023-03-29T07:01:39.942Z,100378.78
2023-03-29T07:04:20.230Z,100379.31
2023-03-29T07:07:13.248Z,100380.72
2023-03-29T07:09:43.758Z,100370.53
2023-03-29T07:12:32.840Z,100381.59
2023-03-29T07:15:04.322Z,100383.91
2023-03-29T07:18:00.290Z,100389.06
2023-03-29T07:20:30.501Z,100394.06
2023-03-29T07:23:10.808Z,100389.75
2023-03-29T07:25:44.008Z,100389.28
2023-03-29T07:28:14.268Z,100395.63
2023-03-29T07:30:44.146Z,100387.69
2023-03-29T07:33:18.113Z,100393.59
2023-03-29T07:36:06.132Z,100389.81
2023-03-29T07:38:38.034Z,100393.25
2023-03-29T07:41:15.935Z,100382.59
2023-03-29T07:43:52.961Z,100384.41
2023-03-29T07:46:27.595Z,100388.19
2023-03-29T07:48:59.192Z,100388.38
2023-03-29T07:51:29.352Z,100397.88
2023-03-29T07:54:08.928Z,100391.84
2023-03-29T07:56:49.175Z,100396.03
2023-03-29T07:59:36.170Z,100400.25
2023-03-29T08:02:22.420Z,100397.41
2023-03-29T08:04:58.483Z,100397.88
2023-03-29T08:07:28.645Z,100401.19
2023-03-29T08:10:14.676Z,100403.09
2023-03-29T08:13:12.197Z,100399.72
2023-03-29T08:16:05.469Z,100398.34
2023-03-29T08:18:40.921Z,100404.63
2023-03-29T08:21:12.029Z,100402.44
2023-03-29T08:23:42.395Z,100399.00
2023-03-29T08:26:26.118Z,100406.34
2023-03-29T08:28:57.060Z,100404.19
2023-03-29T08:31:29.845Z,100409.16
2023-03-29T08:33:59.753Z,100408.19
2023-03-29T08:36:54.190Z,100398.50
2023-03-29T08:39:30.688Z,100409.28
2023-03-29T08:42:31.305Z,100407.41
2023-03-29T08:45:19.724Z,100404.75
2023-03-29T08:48:33.309Z,100416.09
2023-03-29T08:51:11.785Z,100412.06
2023-03-29T08:53:47.206Z,100416.63
2023-03-29T08:56:41.958Z,100417.91
2023-03-29T08:59:29.658Z,100419.63
2023-03-29T09:02:03.889Z,100422.84
2023-03-29T09:04:37.757Z,100429.09
2023-03-29T09:07:30.658Z,100431.59
2023-03-29T09:10:04.366Z,100432.13
2023-03-29T09:13:00.225Z,100436.38
2023-03-29T09:15:39.436Z,100442.00
2023-03-29T09:18:25.724Z,100441.53
2023-03-29T09:21:03.103Z,100446.06
2023-03-29T09:23:52.733Z,100452.09
2023-03-29T09:26:54.682Z,100451.84
2023-03-29T09:30:27.640Z,100454.63
2023-03-29T09:33:23.583Z,100466.06
2023-03-29T09:36:26.182Z,100465.88
2023-03-29T09:38:56.755Z,100472.34
2023-03-29T09:41:42.969Z,100473.03
2023-03-29T09:44:30.180Z,100485.66
2023-03-29T09:47:30.809Z,100478.19
2023-03-29T09:50:22.991Z,100481.25
2023-03-29T09:52:58.006Z,100488.88
2023-03-29T09:55:33.406Z,100496.44
2023-03-29T09:58:34.175Z,100497.78
2023-03-29T10:01:11.178Z,100497.41
2023-03-29T10:03:43.708Z,100503.41
2023-03-29T10:06:19.901Z,100504.44
2023-03-29T10:09:00.045Z,100513.41
2023-03-29T10:11:41.826Z,100506.00
2023-03-29T10:14:19.444Z,100516.78
2023-03-29T10:16:57.963Z,100521.44
2023-03-29T10:19:36.583Z,100526.91
2023-03-29T10:22:09.369Z,100527.75
2023-03-29T10:24:38.736Z,100526.63
2023-03-29T10:27:12.759Z,100541.31
2023-03-29T10:29:44.512Z,100541.84
2023-03-29T10:32:39.667Z,100538.94
2023-03-29T10:35:43.124Z,100541.97
2023-03-29T10:38:16.069Z,100536.28
2023-03-29T10:40:51.439Z,100528.13
2023-03-29T10:43:21.656Z,100532.19
2023-03-29T10:45:53.818Z,100536.25
2023-03-29T10:48:31.516Z,100532.84
2023-03-29T10:51:04.452Z,100540.19
2023-03-29T10:53:39.368Z,100533.44
2023-03-29T10:56:25.759Z,100542.28
2023-03-29T10:59:24.640Z,100535.94
2023-03-29T11:02:03.386Z,100543.19
2023-03-29T11:04:48.734Z,100546.28
2023-03-29T11:07:31.034Z,100545.94
2023-03-29T11:10:38.447Z,100552.28
2023-03-29T11:13:42.200Z,100555.81
2023-03-29T11:16:39.142Z,100560.63
2023-03-29T11:19:32.778Z,100568.25
2023-03-29T11:22:26.551Z,100555.66
2023-03-29T11:25:01.984Z,100555.34
2023-03-29T11:27:47.381Z,100558.03
2023-03-29T11:30:19.662Z,100557.59
2023-03-29T11:33:04.009Z,100553.13
2023-03-29T11:35:39.303Z,100565.28
2023-03-29T11:38:33.462Z,100562.66
2023-03-29T11:41:19.191Z,100565.84
2023-03-29T11:43:55.979Z,100566.63
2023-03-29T11:46:42.934Z,100562.38
2023-03-29T11:49:31.567Z,100561.34
2023-03-29T11:52:16.487Z,100572.38
2023-03-29T11:54:59.953Z,100569.28
2023-03-29T11:57:44.670Z,100574.44
2023-03-29T12:00:25.219Z,100566.81
2023-03-29T12:03:14.320Z,100568.22
2023-03-29T12:05:52.766Z,100574.31
2023-03-29T12:08:39.719Z,100569.28
2023-03-29T12:11:33.863Z,100568.88
2023-03-29T12:14:15.768Z,100567.72
2023-03-29T12:17:06.291Z,100565.56
2023-03-29T12:19:43.750Z,100571.09
2023-03-29T12:22:14.057Z,100571.16
2023-03-29T12:24:49.913Z,100575.78
2023-03-29T12:27:29.316Z,100583.84
2023-03-29T12:30:20.720Z,100587.09
2023-03-29T12:33:28.694Z,100586.78
2023-03-29T12:36:44.848Z,100588.41
2023-03-29T12:39:54.185Z,100589.19
2023-03-29T12:42:55.592Z,100592.03
2023-03-29T12:45:43.984Z,100600.16
2023-03-29T12:48:21.618Z,100593.19
2023-03-29T12:51:03.986Z,100599.19
2023-03-29T12:54:02.700Z,100596.63
2023-03-29T12:56:43.984Z,100605.09
2023-03-29T12:59:48.244Z,100605.50
2023-03-29T13:02:19.169Z,100596.38
2023-03-29T13:04:55.026Z,100596.47
2023-03-29T13:07:25.267Z,100603.41
2023-03-29T13:10:10.546Z,100599.94
2023-03-29T13:12:47.028Z,100597.16
2023-03-29T13:15:18.113Z,100597.84
2023-03-29T13:18:17.419Z,100599.84
2023-03-29T13:20:48.524Z,100612.94
2023-03-29T13:23:37.472Z,100604.66
2023-03-29T13:26:28.986Z,100613.72
2023-03-29T13:29:08.365Z,100614.41
2023-03-29T13:31:45.762Z,100615.72
2023-03-29T13:34:37.111Z,100604.38
2023-03-29T13:37:31.196Z,100619.25
2023-03-29T13:40:01.411Z,100613.44
2023-03-29T13:42:37.713Z,100616.34
2023-03-29T13:45:29.515Z,100614.63
2023-03-29T13:48:35.187Z,100617.72
2023-03-29T13:51:23.558Z,100617.09
2023-03-29T13:54:23.234Z,100612.31
2023-03-29T13:57:12.566Z,100603.38
2023-03-29T14:00:13.464Z,100606.41
2023-03-29T14:02:50.345Z,100602.69
2023-03-29T14:05:26.260Z,100610.28
2023-03-29T14:07:57.328Z,100610.22
2023-03-29T14:10:37.393Z,100614.97
2023-03-29T14:13:08.320Z,100613.66
2023-03-29T14:15:48.013Z,100612.78
2023-03-29T14:18:22.775Z,100615.09
2023-03-29T14:20:56.713Z,100610.53
2023-03-29T14:23:31.765Z,100615.09
2023-03-29T14:26:15.654Z,100617.81
2023-03-29T14:28:51.806Z,100605.66
2023-03-29T14:31:27.959Z,100612.66
2023-03-29T14:34:02.715Z,100610.03
2023-03-29T14:36:34.788Z,100605.34
2023-03-29T14:39:21.014Z,100602.47
2023-03-29T14:41:56.644Z,100597.16
2023-03-29T14:44:34.682Z,100594.44
2023-03-29T14:47:05.552Z,100586.13
2023-03-29T14:49:36.913Z,100589.50
2023-03-29T14:52:07.827Z,100582.38
2023-03-29T14:54:39.103Z,100576.59
2023-03-29T14:57:09.487Z,100562.25
2023-03-29T14:59:43.895Z,100566.69
2023-03-29T15:02:34.772Z,100563.19
2023-03-29T15:05:27.619Z,100562.72
2023-03-29T15:07:57.748Z,100563.66
2023-03-29T15:10:28.362Z,100558.75
2023-03-29T15:12:59.478Z,100553.28
2023-03-29T15:15:32.568Z,100550.47
2023-03-29T15:18:03.879Z,100549.06
2023-03-29T15:20:39.992Z,100544.69
2023-03-29T15:23:30.049Z,100533.31
2023-03-29T15:26:11.678Z,100545.63
2023-03-29T15:28:56.801Z,100542.97
2023-03-29T15:31:34.346Z,100536.00
2023-03-29T15:34:12.916Z,100525.44
2023-03-29T15:36:46.332Z,100519.91
2023-03-29T15:39:18.255Z,100510.91
2023-03-29T15:41:51.595Z,100510.28
2023-03-29T15:44:34.812Z,100502.59
2023-03-29T15:47:05.381Z,100504.94
2023-03-29T15:49:35.055Z,100493.09
2023-03-29T15:52:05.991Z,100481.06
2023-03-29T15:54:38.305Z,100466.84
2023-03-29T15:57:13.326Z,100464.94
2023-03-29T15:59:44.427Z,100456.28
2023-03-29T16:02:21.307Z,100446.88
2023-03-29T16:04:51.475Z,100442.41
2023-03-29T16:07:22.096Z,100431.03
2023-03-29T16:09:52.509Z,100435.22
2023-03-29T16:12:22.270Z,100434.88
2023-03-29T16:14:52.702Z,100426.47
2023-03-29T16:17:22.630Z,100414.75
2023-03-29T16:19:53.238Z,100410.22
2023-03-29T16:22:23.696Z,100406.16
2023-03-29T16:24:54.164Z,100403.25
2023-03-29T16:27:24.082Z,100405.91
2023-03-29T16:29:54.456Z,100405.53
2023-03-29T16:32:24.209Z,100396.44
2023-03-29T16:34:54.796Z,100397.75
2023-03-29T16:37:24.598Z,100403.56
2023-03-29T16:39:55.167Z,100391.84
2023-03-29T16:42:25.573Z,100388.25
2023-03-29T16:44:55.890Z,100383.47
2023-03-29T16:47:26.315Z,100386.00
2023-03-29T16:49:56.247Z,100377.13
2023-03-29T16:52:26.853Z,100374.50
2023-03-29T16:54:56.899Z,100361.56
2023-03-29T16:57:27.748Z,100365.75
2023-03-29T16:59:57.999Z,100348.38
2023-03-29T17:02:28.332Z,100342.50
2023-03-29T17:04:58.657Z,100340.41
2023-03-29T17:07:30.537Z,100324.41
2023-03-29T17:10:00.538Z,100319.66
2023-03-29T17:12:30.852Z,100309.94
2023-03-29T17:15:01.032Z,100306.75
2023-03-29T17:17:31.447Z,100298.53
2023-03-29T17:20:01.589Z,100297.88
2023-03-29T17:22:32.047Z,100291.63
2023-03-29T17:25:04.595Z,100281.31
2023-03-29T17:27:36.749Z,100284.25
2023-03-29T17:30:08.141Z,100278.31
2023-03-29T17:32:38.507Z,100292.50
2023-03-29T17:35:09.520Z,100294.78
2023-03-29T17:37:39.930Z,100296.84
2023-03-29T17:40:15.012Z,100284.03
2023-03-29T17:42:49.890Z,100282.91
2023-03-29T17:45:20.553Z,100276.88
2023-03-29T17:47:50.521Z,100288.75
2023-03-29T17:50:21.063Z,100282.84
2023-03-29T17:52:50.885Z,100289.16
2023-03-29T17:55:22.227Z,100303.50
2023-03-29T17:57:52.814Z,100306.81
2023-03-29T18:00:23.058Z,100299.03
2023-03-29T18:02:53.478Z,100288.31
2023-03-29T18:05:23.459Z,100294.16
2023-03-29T18:07:53.966Z,100290.09
2023-03-29T18:10:24.067Z,100293.59
2023-03-29T18:12:58.493Z,100294.16
2023-03-29T18:15:28.361Z,100298.06
2023-03-29T18:17:59.848Z,100292.66
2023-03-29T18:20:37.182Z,100292.88
2023-03-29T18:23:07.708Z,100292.59
2023-03-29T18:25:37.371Z,100300.44
2023-03-29T18:28:07.735Z,100299.09
2023-03-29T18:30:37.615Z,100309.53
2023-03-29T18:33:07.937Z,100310.03
2023-03-29T18:35:38.161Z,100323.13
2023-03-29T18:38:08.904Z,100316.00
2023-03-29T18:40:40.249Z,100306.97
2023-03-29T18:43:10.469Z,100300.41
2023-03-29T18:45:40.390Z,100295.63
2023-03-29T18:48:11.071Z,100296.69
2023-03-29T18:50:41.074Z,100294.72
2023-03-29T18:53:10.667Z,100295.47
2023-03-29T18:55:44.293Z,100293.72
2023-03-29T18:58:16.057Z,100294.66
2023-03-29T19:00:46.636Z,100291.03
2023-03-29T19:03:16.497Z,100291.16
2023-03-29T19:05:46.948Z,100292.31
2023-03-29T19:08:16.734Z,100294.88
2023-03-29T19:10:47.132Z,100283.91
2023-03-29T19:13:16.694Z,100290.94
2023-03-29T19:15:46.638Z,100273.47
2023-03-29T19:18:17.159Z,100265.25
2023-03-29T19:20:46.853Z,100266.84
2023-03-29T19:23:17.026Z,100273.56
2023-03-29T19:25:54.078Z,100261.72
2023-03-29T19:28:25.846Z,100261.06
2023-03-29T19:30:57.351Z,100255.09
2023-03-29T19:33:27.951Z,100270.25
2023-03-29T19:35:58.265Z,100276.41
2023-03-29T19:38:28.702Z,100284.72
2023-03-29T19:40:58.514Z,100285.75
2023-03-29T19:43:28.728Z,100296.59
2023-03-29T19:45:58.569Z,100341.16
2023-03-29T19:48:28.806Z,100359.31
2023-03-29T19:51:03.933Z,100403.19
2023-03-29T19:53:37.021Z,100450.84
2023-03-29T19:56:12.409Z,100514.59
2023-03-29T19:58:43.905Z,100541.63
2023-03-29T20:01:16.684Z,100577.28
2023-03-29T20:03:47.909Z,100619.78
2023-03-29T20:06:19.676Z,100621.97
2023-03-29T20:08:50.064Z,100557.34
2023-03-29T20:11:24.825Z,100496.56
2023-03-29T20:13:55.141Z,100465.88
2023-03-29T20:16:25.588Z,100438.84
2023-03-29T20:18:57.333Z,100399.25
2023-03-29T20:21:27.146Z,100404.09
2023-03-29T20:23:58.447Z,100427.69
2023-03-29T20:26:29.230Z,100389.88
2023-03-29T20:28:59.151Z,100376.75
2023-03-29T20:31:30.598Z,100399.16
2023-03-29T20:34:00.962Z,100417.66
2023-03-29T20:36:31.707Z,100431.34
2023-03-29T20:39:02.330Z,100431.94
2023-03-29T20:41:34.904Z,100444.34
2023-03-29T20:44:06.765Z,100462.50
2023-03-29T20:46:36.961Z,100467.63
2023-03-29T20:49:09.941Z,100477.81
2023-03-29T20:51:39.854Z,100478.69
2023-03-29T20:54:11.150Z,100464.69
2023-03-29T20:56:43.511Z,100458.59
2023-03-29T20:59:13.715Z,100456.75
2023-03-29T21:01:43.551Z,100456.34
2023-03-29T21:04:13.986Z,100461.97
2023-03-29T21:06:46.617Z,100485.44
2023-03-29T21:09:22.078Z,100477.50
2023-03-29T21:11:52.733Z,100491.91
2023-03-29T21:14:23.433Z,100504.47
2023-03-29T21:16:53.202Z,100526.78
2023-03-29T21:19:25.352Z,100552.59
2023-03-29T21:21:56.143Z,100580.59
2023-03-29T21:24:26.546Z,100603.91
2023-03-29T21:26:56.558Z,100625.06
2023-03-29T21:29:27.078Z,100625.56
2023-03-29T21:31:57.011Z,100601.44
2023-03-29T21:34:27.230Z,100601.94
2023-03-29T21:36:57.196Z,100594.97
2023-03-29T21:39:28.021Z,100587.38
2023-03-29T21:41:58.073Z,100580.03
2023-03-29T21:44:28.228Z,100576.34
2023-03-29T21:46:57.933Z,100571.06
2023-03-29T21:49:27.903Z,100576.94
2023-03-29T21:51:58.323Z,100563.03
2023-03-29T21:54:28.895Z,100553.22
2023-03-29T21:56:59.068Z,100540.06
2023-03-29T21:59:29.272Z,100530.63
2023-03-29T22:01:59.642Z,100526.69
2023-03-29T22:04:36.564Z,100531.06
2023-03-29T22:07:11.740Z,100551.06
2023-03-29T22:09:43.448Z,100552.78
2023-03-29T22:12:13.594Z,100570.63
2023-03-29T22:14:43.189Z,100558.81
2023-03-29T22:17:13.143Z,100556.66
2023-03-29T22:19:43.807Z,100564.47
2023-03-29T22:22:16.051Z,100574.84
2023-03-29T22:24:46.458Z,100585.88
2023-03-29T22:27:16.037Z,100582.34
2023-03-29T22:29:45.850Z,100585.41
2023-03-29T22:32:16.742Z,100580.88
2023-03-29T22:34:46.743Z,100583.63
2023-03-29T22:37:17.029Z,100586.47
2023-03-29T22:39:47.037Z,100598.94
2023-03-29T22:42:17.368Z,100588.09
2023-03-29T22:44:47.246Z,100603.38
2023-03-29T22:47:17.600Z,100600.94
2023-03-29T22:49:47.402Z,100598.44
2023-03-29T22:52:20.499Z,100586.81
2023-03-29T22:54:50.288Z,100579.81
2023-03-29T22:57:20.503Z,100586.34
2023-03-29T22:59:51.892Z,100582.44
2023-03-29T23:02:22.827Z,100592.91
2023-03-29T23:04:52.703Z,100592.34
2023-03-29T23:07:22.392Z,100592.53
2023-03-29T23:09:52.540Z,100593.28
2023-03-29T23:12:22.312Z,100576.84
2023-03-29T23:14:54.234Z,100582.34
2023-03-29T23:17:23.945Z,100576.69
2023-03-29T23:19:53.994Z,100567.84
2023-03-29T23:22:23.854Z,100574.44
2023-03-29T23:24:53.472Z,100574.47
2023-03-29T23:27:23.592Z,100562.34
2023-03-29T23:29:53.250Z,100560.34
2023-03-29T23:32:23.135Z,100560.81
2023-03-29T23:34:54.221Z,100562.34
2023-03-29T23:37:24.323Z,100565.63
2023-03-29T23:39:54.529Z,100557.06
2023-03-29T23:42:24.877Z,100558.75
2023-03-29T23:44:54.565Z,100569.97
2023-03-29T23:47:24.846Z,100575.28
2023-03-29T23:49:54.463Z,100574.22
2023-03-29T23:52:24.285Z,100577.50
2023-03-29T23:54:54.470Z,100577.97
2023-03-29T23:57:24.589Z,100589.94
